KBIH/BIH METAR and TAF weather

Enter ICAO airport designator
Station Type Date Time Source
KBIH METAR 2022/07/01 00:56 UTC NOAA

KBIH 010056Z AUTO 27012KT 10SM CLR 36/M02 A2992 RMK AO2 SLP076 T03561022


Station Type Date Time Source
KBIH Decoded METAR 2022/07/01 00:56 UTC NOAA

BISHOP AIRPORT, CA, United States (KBIH) 37-22N 118-22W 1253M
Jun 30, 2022 - 08:56 PM EDT / 2022.07.01 0056 UTC
Wind: from the W (270 degrees) at 14 MPH (12 KT):0
Visibility: 10 mile(s):0
Sky conditions: clear
Temperature: 96.1 F (35.6 C)
Dew Point: 28.0 F (-2.2 C)
Relative Humidity: 8%
Pressure (altimeter): 29.92 in. Hg (1013 hPa)
ob: KBIH 010056Z AUTO 27012KT 10SM CLR 36/M02 A2992 RMK AO2 SLP076 T03561022
cycle: 1

Station Type Date Time Source
KBIH TAF 2022/06/30 18:22 UTC NOAA

TAF KBIH 301720Z 3018/0118 VRB05KT P6SM SKC
FM302100 16010G18KT P6SM FEW120
FM010000 26010G20KT P6SM FEW120
FM010400 33008KT P6SM SKC

Example: see airport list